Classifiche di sempre
Migliori tempi personali validi di team tra tutti gli eventi e le stagioni. Ogni team compare una sola volta per divisione.
Cerca per nome e apri la pagina in cui è classificato questo record di divisione.
134,451 team in classifica
| Pos. | Pos. AG | Team | Nazionalità | Categoria età | TempoMiglior tempo | Distacco |
|---|---|---|---|---|---|---|
| 123576 | #15224 | Chun Pong Chan & Suet Ying ToHKG · X 35-39 · AG #15224 | HKG | X 35-39 | 1:46:46 | +57:33 |
| 123577 | #16479 | Willem-Jan Van Langevelde & Wendy De VosNED · X 40-44 · AG #16479 | NED | X 40-44 | 1:46:46 | +57:33 |
| 123578 | -- | Celina Lund & Marvin TomlinsonX XU29 | -- | X XU29 | 1:46:46 | +57:33 |
| 123579 | -- | Salvatore Mazzone & Silvia FerroITA · X XU29 | ITA | X XU29 | 1:46:46 | +57:33 |
| 123580 | #43697 | 皓月 缪 & 策 郑CHN · X 30-34 · AG #43697 | CHN | X 30-34 | 1:46:46 | +57:33 |
| 123581 | #8357 | Thymo Scheper & Faye ScheperNED · X 16-24 · AG #8357 | NED | X 16-24 | 1:46:46 | +57:33 |
| 123582 | #18940 | Courtney Knight & Harry PhillipsGBR · X 25-29 · AG #18940 | GBR | X 25-29 | 1:46:46 | +57:33 |
| 123583 | #18941 | Zara Yigit & Bailey WilsonGBR · X 25-29 · AG #18941 | GBR | X 25-29 | 1:46:47 | +57:34 |
| 123584 | #2721 | Lon Allen & Tiffany VaccaUSA · X 50-54 · AG #2721 | USA | X 50-54 | 1:46:47 | +57:34 |
| 123585 | #43698 | Marisol López González & Miguel Alejandro Morales De La RosaMEX · X 30-34 · AG #43698 | MEX | X 30-34 | 1:46:47 | +57:34 |
| 123586 | #43699 | Peggy Kourmoulaki & Chris MorrisonGBR · X 30-34 · AG #43699 | GBR | X 30-34 | 1:46:47 | +57:34 |
| 123587 | #43700 | Holly Dewhurst Fawcett & Jake ClancyAUS · X 30-34 · AG #43700 | AUS | X 30-34 | 1:46:47 | +57:34 |
| 123588 | #16480 | Carole Barvaut & Bélaïd BalitFRA · X 40-44 · AG #16480 | FRA | X 40-44 | 1:46:47 | +57:34 |
| 123589 | #15225 | Lauren Goodwin & Mark GoodwinGBR · X 35-39 · AG #15225 | GBR | X 35-39 | 1:46:47 | +57:34 |
| 123590 | #8358 | Kieran Dunn & Jenna TorrieGBR · X 16-24 · AG #8358 | GBR | X 16-24 | 1:46:47 | +57:34 |
| 123591 | #18942 | 梦茜 王 & 宏 梁CHN · X 25-29 · AG #18942 | CHN | X 25-29 | 1:46:47 | +57:34 |
| 123592 | #16481 | Jennifer Parry-Selmes & Nathaniel Parry-SelmesAUS · X 40-44 · AG #16481 | AUS | X 40-44 | 1:46:47 | +57:34 |
| 123593 | #43701 | Niklas Arlt & Sylvana SiepenkothenGER · X 30-34 · AG #43701 | GER | X 30-34 | 1:46:47 | +57:34 |
| 123594 | #8359 | Lochlin Garrett & Mykaela GarrettAUS · X 16-24 · AG #8359 | AUS | X 16-24 | 1:46:48 | +57:35 |
| 123595 | #18943 | Noorisha Gafoor & Shaqi SulaimanSIN · X 25-29 · AG #18943 | SIN | X 25-29 | 1:46:48 | +57:35 |
| 123596 | #43702 | Theo van Stryp & Christi van StrypRSA · X 30-34 · AG #43702 | RSA | X 30-34 | 1:46:48 | +57:35 |
| 123597 | #43703 | Farah Nadia Muhammad Sabri & Ikmal AdianMAS · X 30-34 · AG #43703 | MAS | X 30-34 | 1:46:48 | +57:35 |
| 123598 | #15226 | Maxime Michel & Colline MichelBEL · X 35-39 · AG #15226 | BEL | X 35-39 | 1:46:48 | +57:35 |
| 123599 | #43704 | Thomas Wright & Diosmary VegaUSA · X 30-34 · AG #43704 | USA | X 30-34 | 1:46:48 | +57:35 |
| 123600 | #43706 | Manuel Alejandro Pérez Zuñiga & Laura Ivonne Suasnávar CabreraMEX · X 30-34 · AG #43706 | MEX | X 30-34 | 1:46:48 | +57:35 |
Pagina 4,944 di 5,379